sensor_id;sensor_type;location;lat;lon;timestamp;temperature;humidity
20526;DHT22;10421;49.142;9.232;2023-08-24T00:01:56;26.20;87.60
20526;DHT22;10421;49.142;9.232;2023-08-24T00:04:23;26.20;87.60
20526;DHT22;10421;49.142;9.232;2023-08-24T00:06:49;26.20;87.60
20526;DHT22;10421;49.142;9.232;2023-08-24T00:09:16;26.20;87.60
20526;DHT22;10421;49.142;9.232;2023-08-24T00:11:43;26.20;87.70
20526;DHT22;10421;49.142;9.232;2023-08-24T00:14:11;26.20;87.70
20526;DHT22;10421;49.142;9.232;2023-08-24T00:16:38;26.20;87.80
20526;DHT22;10421;49.142;9.232;2023-08-24T00:19:06;26.20;87.80
20526;DHT22;10421;49.142;9.232;2023-08-24T00:21:33;26.10;87.70
20526;DHT22;10421;49.142;9.232;2023-08-24T00:24:00;26.10;87.90
20526;DHT22;10421;49.142;9.232;2023-08-24T00:26:26;26.10;88.10
20526;DHT22;10421;49.142;9.232;2023-08-24T00:28:53;26.00;88.20
20526;DHT22;10421;49.142;9.232;2023-08-24T00:31:22;26.00;88.30
20526;DHT22;10421;49.142;9.232;2023-08-24T00:33:48;26.00;88.30
20526;DHT22;10421;49.142;9.232;2023-08-24T00:36:16;25.90;88.30
20526;DHT22;10421;49.142;9.232;2023-08-24T00:38:44;25.90;88.50
20526;DHT22;10421;49.142;9.232;2023-08-24T00:41:16;25.80;88.60
20526;DHT22;10421;49.142;9.232;2023-08-24T00:43:43;25.80;88.80
20526;DHT22;10421;49.142;9.232;2023-08-24T00:46:10;25.80;89.00
20526;DHT22;10421;49.142;9.232;2023-08-24T00:48:39;25.80;89.20
20526;DHT22;10421;49.142;9.232;2023-08-24T00:51:05;25.80;89.30
20526;DHT22;10421;49.142;9.232;2023-08-24T00:53:33;25.80;89.40
20526;DHT22;10421;49.142;9.232;2023-08-24T00:56:00;25.80;89.50
20526;DHT22;10421;49.142;9.232;2023-08-24T00:58:27;25.80;89.40
20526;DHT22;10421;49.142;9.232;2023-08-24T01:00:55;25.80;89.40
20526;DHT22;10421;49.142;9.232;2023-08-24T01:03:22;25.80;89.40
20526;DHT22;10421;49.142;9.232;2023-08-24T01:05:50;25.80;89.60
20526;DHT22;10421;49.142;9.232;2023-08-24T01:08:17;25.80;89.50
20526;DHT22;10421;49.142;9.232;2023-08-24T01:10:50;25.80;89.30
20526;DHT22;10421;49.142;9.232;2023-08-24T01:13:23;25.80;90.00
20526;DHT22;10421;49.142;9.232;2023-08-24T01:15:58;25.80;89.20
20526;DHT22;10421;49.142;9.232;2023-08-24T01:18:28;25.70;89.30
20526;DHT22;10421;49.142;9.232;2023-08-24T01:20:58;25.70;89.40
20526;DHT22;10421;49.142;9.232;2023-08-24T01:23:34;25.60;89.60
20526;DHT22;10421;49.142;9.232;2023-08-24T01:26:12;25.60;89.80
20526;DHT22;10421;49.142;9.232;2023-08-24T01:28:42;25.60;89.90
20526;DHT22;10421;49.142;9.232;2023-08-24T01:31:09;25.60;90.00
20526;DHT22;10421;49.142;9.232;2023-08-24T01:33:36;25.60;90.00
20526;DHT22;10421;49.142;9.232;2023-08-24T01:36:03;25.50;90.00
20526;DHT22;10421;49.142;9.232;2023-08-24T01:38:30;25.50;90.10
20526;DHT22;10421;49.142;9.232;2023-08-24T01:41:05;25.50;90.20
20526;DHT22;10421;49.142;9.232;2023-08-24T01:43:37;25.50;90.20
20526;DHT22;10421;49.142;9.232;2023-08-24T01:46:06;25.50;90.30
20526;DHT22;10421;49.142;9.232;2023-08-24T01:48:34;25.50;90.40
20526;DHT22;10421;49.142;9.232;2023-08-24T01:51:02;25.40;90.50
20526;DHT22;10421;49.142;9.232;2023-08-24T01:53:30;25.40;90.60
20526;DHT22;10421;49.142;9.232;2023-08-24T01:55:57;25.40;90.70
20526;DHT22;10421;49.142;9.232;2023-08-24T01:58:24;25.40;90.80
20526;DHT22;10421;49.142;9.232;2023-08-24T02:00:52;25.40;91.00
20526;DHT22;10421;49.142;9.232;2023-08-24T02:03:19;25.40;91.10
20526;DHT22;10421;49.142;9.232;2023-08-24T02:05:45;25.40;91.20
20526;DHT22;10421;49.142;9.232;2023-08-24T02:08:12;25.40;91.30
20526;DHT22;10421;49.142;9.232;2023-08-24T02:10:39;25.40;91.40
20526;DHT22;10421;49.142;9.232;2023-08-24T02:13:06;25.40;91.40
20526;DHT22;10421;49.142;9.232;2023-08-24T02:15:32;25.40;91.40
20526;DHT22;10421;49.142;9.232;2023-08-24T02:18:00;25.30;91.30
20526;DHT22;10421;49.142;9.232;2023-08-24T02:20:27;25.30;91.40
20526;DHT22;10421;49.142;9.232;2023-08-24T02:22:54;25.30;91.50
20526;DHT22;10421;49.142;9.232;2023-08-24T02:25:20;25.20;91.50
20526;DHT22;10421;49.142;9.232;2023-08-24T02:27:47;25.20;91.60
20526;DHT22;10421;49.142;9.232;2023-08-24T02:30:14;25.10;91.70
20526;DHT22;10421;49.142;9.232;2023-08-24T02:32:41;25.00;91.70
20526;DHT22;10421;49.142;9.232;2023-08-24T02:35:09;25.00;91.80
20526;DHT22;10421;49.142;9.232;2023-08-24T02:37:36;25.00;91.90
20526;DHT22;10421;49.142;9.232;2023-08-24T02:40:03;24.90;92.00
20526;DHT22;10421;49.142;9.232;2023-08-24T02:42:31;24.90;92.10
20526;DHT22;10421;49.142;9.232;2023-08-24T02:44:58;24.80;92.10
20526;DHT22;10421;49.142;9.232;2023-08-24T02:47:25;24.80;92.30
20526;DHT22;10421;49.142;9.232;2023-08-24T02:49:52;24.70;92.30
20526;DHT22;10421;49.142;9.232;2023-08-24T02:52:20;24.70;92.50
20526;DHT22;10421;49.142;9.232;2023-08-24T02:54:47;24.60;92.60
20526;DHT22;10421;49.142;9.232;2023-08-24T02:57:14;24.60;92.70
20526;DHT22;10421;49.142;9.232;2023-08-24T02:59:40;24.60;92.80
20526;DHT22;10421;49.142;9.232;2023-08-24T03:02:09;24.70;92.80
20526;DHT22;10421;49.142;9.232;2023-08-24T03:04:36;24.70;92.80
20526;DHT22;10421;49.142;9.232;2023-08-24T03:07:02;24.70;92.90
20526;DHT22;10421;49.142;9.232;2023-08-24T03:09:34;24.80;92.90
20526;DHT22;10421;49.142;9.232;2023-08-24T03:12:00;24.80;93.00
20526;DHT22;10421;49.142;9.232;2023-08-24T03:14:27;24.70;93.00
20526;DHT22;10421;49.142;9.232;2023-08-24T03:16:54;24.70;93.00
20526;DHT22;10421;49.142;9.232;2023-08-24T03:19:20;24.60;93.00
20526;DHT22;10421;49.142;9.232;2023-08-24T03:21:47;24.50;93.10
20526;DHT22;10421;49.142;9.232;2023-08-24T03:24:14;24.40;93.30
20526;DHT22;10421;49.142;9.232;2023-08-24T03:26:42;24.40;93.40
20526;DHT22;10421;49.142;9.232;2023-08-24T03:29:09;24.40;93.60
20526;DHT22;10421;49.142;9.232;2023-08-24T03:31:35;24.40;93.60
20526;DHT22;10421;49.142;9.232;2023-08-24T03:34:02;24.40;93.70
20526;DHT22;10421;49.142;9.232;2023-08-24T03:36:30;24.50;93.70
20526;DHT22;10421;49.142;9.232;2023-08-24T03:38:56;24.50;93.70
20526;DHT22;10421;49.142;9.232;2023-08-24T03:41:23;24.50;93.70
20526;DHT22;10421;49.142;9.232;2023-08-24T03:43:51;24.50;93.60
20526;DHT22;10421;49.142;9.232;2023-08-24T03:46:18;24.40;93.50
20526;DHT22;10421;49.142;9.232;2023-08-24T03:48:44;24.40;93.50
20526;DHT22;10421;49.142;9.232;2023-08-24T03:51:11;24.40;93.50
20526;DHT22;10421;49.142;9.232;2023-08-24T03:53:38;24.40;93.50
20526;DHT22;10421;49.142;9.232;2023-08-24T03:56:05;24.40;93.50
20526;DHT22;10421;49.142;9.232;2023-08-24T03:58:31;24.40;93.50
20526;DHT22;10421;49.142;9.232;2023-08-24T04:00:59;24.40;93.60
20526;DHT22;10421;49.142;9.232;2023-08-24T04:03:27;24.40;93.70
20526;DHT22;10421;49.142;9.232;2023-08-24T04:05:53;24.40;93.70
20526;DHT22;10421;49.142;9.232;2023-08-24T04:08:20;24.40;93.80
20526;DHT22;10421;49.142;9.232;2023-08-24T04:10:47;24.40;93.80
20526;DHT22;10421;49.142;9.232;2023-08-24T04:13:13;24.40;93.90
20526;DHT22;10421;49.142;9.232;2023-08-24T04:15:40;24.40;94.00
20526;DHT22;10421;49.142;9.232;2023-08-24T04:18:08;24.40;94.10
20526;DHT22;10421;49.142;9.232;2023-08-24T04:20:36;24.50;94.10
20526;DHT22;10421;49.142;9.232;2023-08-24T04:23:03;24.50;94.10
20526;DHT22;10421;49.142;9.232;2023-08-24T04:25:30;24.60;94.00
20526;DHT22;10421;49.142;9.232;2023-08-24T04:27:57;24.60;93.90
20526;DHT22;10421;49.142;9.232;2023-08-24T04:30:23;24.60;93.80
20526;DHT22;10421;49.142;9.232;2023-08-24T04:32:50;24.60;93.70
20526;DHT22;10421;49.142;9.232;2023-08-24T04:35:18;24.60;93.80
20526;DHT22;10421;49.142;9.232;2023-08-24T04:37:45;24.50;93.90
20526;DHT22;10421;49.142;9.232;2023-08-24T04:40:12;24.40;94.00
20526;DHT22;10421;49.142;9.232;2023-08-24T04:42:39;24.40;94.00
20526;DHT22;10421;49.142;9.232;2023-08-24T04:45:06;24.50;94.10
20526;DHT22;10421;49.142;9.232;2023-08-24T04:47:33;24.50;94.10
20526;DHT22;10421;49.142;9.232;2023-08-24T04:50:00;24.50;94.10
20526;DHT22;10421;49.142;9.232;2023-08-24T04:52:28;24.60;94.10
20526;DHT22;10421;49.142;9.232;2023-08-24T04:54:55;24.60;93.90
20526;DHT22;10421;49.142;9.232;2023-08-24T04:57:21;24.60;93.80
20526;DHT22;10421;49.142;9.232;2023-08-24T04:59:48;24.70;93.60
20526;DHT22;10421;49.142;9.232;2023-08-24T05:02:15;24.70;93.40
20526;DHT22;10421;49.142;9.232;2023-08-24T05:04:42;24.80;93.30
20526;DHT22;10421;49.142;9.232;2023-08-24T05:07:08;24.80;93.20
20526;DHT22;10421;49.142;9.232;2023-08-24T05:09:36;24.90;93.10
20526;DHT22;10421;49.142;9.232;2023-08-24T05:12:04;24.90;92.90
20526;DHT22;10421;49.142;9.232;2023-08-24T05:14:32;24.90;92.80
20526;DHT22;10421;49.142;9.232;2023-08-24T05:17:00;25.00;92.80
20526;DHT22;10421;49.142;9.232;2023-08-24T05:19:26;25.00;92.70
20526;DHT22;10421;49.142;9.232;2023-08-24T05:21:53;25.10;92.70
20526;DHT22;10421;49.142;9.232;2023-08-24T05:24:20;25.10;92.60
20526;DHT22;10421;49.142;9.232;2023-08-24T05:26:48;25.10;92.60
20526;DHT22;10421;49.142;9.232;2023-08-24T05:29:14;25.10;92.50
20526;DHT22;10421;49.142;9.232;2023-08-24T05:31:41;25.10;92.70
20526;DHT22;10421;49.142;9.232;2023-08-24T05:34:08;25.10;92.80
20526;DHT22;10421;49.142;9.232;2023-08-24T05:36:34;25.20;92.90
20526;DHT22;10421;49.142;9.232;2023-08-24T05:39:03;25.20;92.80
20526;DHT22;10421;49.142;9.232;2023-08-24T05:41:30;25.20;92.70
20526;DHT22;10421;49.142;9.232;2023-08-24T05:43:58;25.30;92.70
20526;DHT22;10421;49.142;9.232;2023-08-24T05:46:25;25.30;92.50
20526;DHT22;10421;49.142;9.232;2023-08-24T05:48:52;25.30;92.40
20526;DHT22;10421;49.142;9.232;2023-08-24T05:51:21;25.40;92.40
20526;DHT22;10421;49.142;9.232;2023-08-24T05:53:48;25.40;92.20
20526;DHT22;10421;49.142;9.232;2023-08-24T05:56:14;25.50;92.10
20526;DHT22;10421;49.142;9.232;2023-08-24T05:58:41;25.50;92.00
20526;DHT22;10421;49.142;9.232;2023-08-24T06:01:09;25.60;92.20
20526;DHT22;10421;49.142;9.232;2023-08-24T06:03:36;25.60;91.70
20526;DHT22;10421;49.142;9.232;2023-08-24T06:06:03;25.70;91.60
20526;DHT22;10421;49.142;9.232;2023-08-24T06:08:30;25.70;91.40
20526;DHT22;10421;49.142;9.232;2023-08-24T06:10:57;25.80;91.30
20526;DHT22;10421;49.142;9.232;2023-08-24T06:13:24;25.90;91.20
20526;DHT22;10421;49.142;9.232;2023-08-24T06:15:51;26.00;91.10
20526;DHT22;10421;49.142;9.232;2023-08-24T06:18:19;26.10;91.10
20526;DHT22;10421;49.142;9.232;2023-08-24T06:20:46;26.10;91.00
20526;DHT22;10421;49.142;9.232;2023-08-24T06:23:16;26.20;91.30
20526;DHT22;10421;49.142;9.232;2023-08-24T06:25:43;26.20;91.60
20526;DHT22;10421;49.142;9.232;2023-08-24T06:28:10;26.30;91.60
20526;DHT22;10421;49.142;9.232;2023-08-24T06:30:37;26.30;91.60
20526;DHT22;10421;49.142;9.232;2023-08-24T06:33:05;26.40;91.30
20526;DHT22;10421;49.142;9.232;2023-08-24T06:35:34;26.40;91.00
20526;DHT22;10421;49.142;9.232;2023-08-24T06:38:01;26.40;90.70
20526;DHT22;10421;49.142;9.232;2023-08-24T06:40:28;26.30;90.40
20526;DHT22;10421;49.142;9.232;2023-08-24T06:42:55;26.30;90.70
20526;DHT22;10421;49.142;9.232;2023-08-24T06:45:22;26.20;90.40
20526;DHT22;10421;49.142;9.232;2023-08-24T06:47:49;26.10;90.20
20526;DHT22;10421;49.142;9.232;2023-08-24T06:50:17;26.10;90.20
20526;DHT22;10421;49.142;9.232;2023-08-24T06:52:45;26.00;90.20
20526;DHT22;10421;49.142;9.232;2023-08-24T06:55:12;26.00;90.20
20526;DHT22;10421;49.142;9.232;2023-08-24T06:57:39;26.00;90.20
20526;DHT22;10421;49.142;9.232;2023-08-24T07:00:07;26.00;90.20
20526;DHT22;10421;49.142;9.232;2023-08-24T07:02:34;26.10;90.00
20526;DHT22;10421;49.142;9.232;2023-08-24T07:05:02;26.10;90.00
20526;DHT22;10421;49.142;9.232;2023-08-24T07:07:30;26.10;89.90
20526;DHT22;10421;49.142;9.232;2023-08-24T07:09:58;26.10;89.80
20526;DHT22;10421;49.142;9.232;2023-08-24T07:12:25;26.10;89.70
20526;DHT22;10421;49.142;9.232;2023-08-24T07:14:51;26.20;89.70
20526;DHT22;10421;49.142;9.232;2023-08-24T07:17:19;26.30;89.50
20526;DHT22;10421;49.142;9.232;2023-08-24T07:19:45;26.40;89.10
20526;DHT22;10421;49.142;9.232;2023-08-24T07:22:12;26.40;89.40
20526;DHT22;10421;49.142;9.232;2023-08-24T07:24:39;26.40;89.60
20526;DHT22;10421;49.142;9.232;2023-08-24T07:27:08;26.40;89.90
20526;DHT22;10421;49.142;9.232;2023-08-24T07:29:35;26.30;90.20
20526;DHT22;10421;49.142;9.232;2023-08-24T07:32:02;26.30;90.40
20526;DHT22;10421;49.142;9.232;2023-08-24T07:34:29;26.20;90.40
20526;DHT22;10421;49.142;9.232;2023-08-24T07:36:56;26.20;90.30
20526;DHT22;10421;49.142;9.232;2023-08-24T07:39:23;26.20;90.30
20526;DHT22;10421;49.142;9.232;2023-08-24T07:41:49;26.20;90.20
20526;DHT22;10421;49.142;9.232;2023-08-24T07:44:17;26.20;90.30
20526;DHT22;10421;49.142;9.232;2023-08-24T07:46:44;26.20;90.50
20526;DHT22;10421;49.142;9.232;2023-08-24T07:49:11;26.10;90.60
20526;DHT22;10421;49.142;9.232;2023-08-24T07:51:38;26.20;90.70
20526;DHT22;10421;49.142;9.232;2023-08-24T07:54:05;26.30;90.70
20526;DHT22;10421;49.142;9.232;2023-08-24T07:56:33;26.40;90.70
20526;DHT22;10421;49.142;9.232;2023-08-24T07:58:59;26.70;90.50
20526;DHT22;10421;49.142;9.232;2023-08-24T08:01:28;26.90;90.30
20526;DHT22;10421;49.142;9.232;2023-08-24T08:03:54;27.10;90.10
20526;DHT22;10421;49.142;9.232;2023-08-24T08:06:21;27.30;89.80
20526;DHT22;10421;49.142;9.232;2023-08-24T08:08:50;27.50;89.50
20526;DHT22;10421;49.142;9.232;2023-08-24T08:11:17;27.70;88.80
20526;DHT22;10421;49.142;9.232;2023-08-24T08:13:44;27.80;88.40
20526;DHT22;10421;49.142;9.232;2023-08-24T08:16:11;27.90;87.90
20526;DHT22;10421;49.142;9.232;2023-08-24T08:18:39;28.00;87.10
20526;DHT22;10421;49.142;9.232;2023-08-24T08:21:09;28.10;86.60
20526;DHT22;10421;49.142;9.232;2023-08-24T08:23:37;28.20;86.20
20526;DHT22;10421;49.142;9.232;2023-08-24T08:26:03;28.40;86.00
20526;DHT22;10421;49.142;9.232;2023-08-24T08:28:30;28.40;85.00
20526;DHT22;10421;49.142;9.232;2023-08-24T08:30:59;28.50;84.70
20526;DHT22;10421;49.142;9.232;2023-08-24T08:33:25;28.60;84.40
20526;DHT22;10421;49.142;9.232;2023-08-24T08:35:53;28.70;84.00
20526;DHT22;10421;49.142;9.232;2023-08-24T08:38:20;28.90;83.80
20526;DHT22;10421;49.142;9.232;2023-08-24T08:40:51;29.00;83.70
20526;DHT22;10421;49.142;9.232;2023-08-24T08:43:21;29.10;83.40
20526;DHT22;10421;49.142;9.232;2023-08-24T08:45:49;29.30;83.00
20526;DHT22;10421;49.142;9.232;2023-08-24T08:48:16;29.40;82.50
20526;DHT22;10421;49.142;9.232;2023-08-24T08:50:42;29.60;82.20
20526;DHT22;10421;49.142;9.232;2023-08-24T08:53:10;29.70;81.60
20526;DHT22;10421;49.142;9.232;2023-08-24T08:55:37;29.80;80.80
20526;DHT22;10421;49.142;9.232;2023-08-24T08:58:04;29.90;80.50
20526;DHT22;10421;49.142;9.232;2023-08-24T09:00:32;30.00;80.50
20526;DHT22;10421;49.142;9.232;2023-08-24T09:02:59;30.20;80.00
20526;DHT22;10421;49.142;9.232;2023-08-24T09:05:27;30.20;79.60
20526;DHT22;10421;49.142;9.232;2023-08-24T09:07:54;30.30;79.00
20526;DHT22;10421;49.142;9.232;2023-08-24T09:10:23;30.50;79.10
20526;DHT22;10421;49.142;9.232;2023-08-24T09:12:49;30.60;78.80
20526;DHT22;10421;49.142;9.232;2023-08-24T09:15:24;30.70;78.60
20526;DHT22;10421;49.142;9.232;2023-08-24T09:17:54;30.80;78.10
20526;DHT22;10421;49.142;9.232;2023-08-24T09:20:21;30.90;77.80
20526;DHT22;10421;49.142;9.232;2023-08-24T09:22:48;31.00;77.30
20526;DHT22;10421;49.142;9.232;2023-08-24T09:25:16;31.10;77.30
20526;DHT22;10421;49.142;9.232;2023-08-24T09:27:44;31.20;77.40
20526;DHT22;10421;49.142;9.232;2023-08-24T09:30:11;31.40;77.10
20526;DHT22;10421;49.142;9.232;2023-08-24T09:32:38;31.50;77.00
20526;DHT22;10421;49.142;9.232;2023-08-24T09:35:08;31.60;75.80
20526;DHT22;10421;49.142;9.232;2023-08-24T09:37:36;31.70;75.00
20526;DHT22;10421;49.142;9.232;2023-08-24T09:40:06;31.80;74.10
20526;DHT22;10421;49.142;9.232;2023-08-24T09:42:37;32.00;74.20
20526;DHT22;10421;49.142;9.232;2023-08-24T09:45:07;32.00;73.20
20526;DHT22;10421;49.142;9.232;2023-08-24T09:47:35;32.10;73.10
20526;DHT22;10421;49.142;9.232;2023-08-24T09:50:02;32.10;73.30
20526;DHT22;10421;49.142;9.232;2023-08-24T09:52:32;32.30;73.90
20526;DHT22;10421;49.142;9.232;2023-08-24T09:55:02;32.40;73.70
20526;DHT22;10421;49.142;9.232;2023-08-24T09:57:32;32.50;73.40
20526;DHT22;10421;49.142;9.232;2023-08-24T10:00:01;32.60;72.90
20526;DHT22;10421;49.142;9.232;2023-08-24T10:02:37;32.70;72.60
20526;DHT22;10421;49.142;9.232;2023-08-24T10:05:08;32.80;72.60
20526;DHT22;10421;49.142;9.232;2023-08-24T10:07:37;32.90;71.70
20526;DHT22;10421;49.142;9.232;2023-08-24T10:10:07;33.00;71.40
20526;DHT22;10421;49.142;9.232;2023-08-24T10:12:41;33.10;71.40
20526;DHT22;10421;49.142;9.232;2023-08-24T10:15:10;33.20;71.20
20526;DHT22;10421;49.142;9.232;2023-08-24T10:17:39;33.20;71.20
20526;DHT22;10421;49.142;9.232;2023-08-24T10:20:07;33.40;70.90
20526;DHT22;10421;49.142;9.232;2023-08-24T10:22:37;33.40;70.40
20526;DHT22;10421;49.142;9.232;2023-08-24T10:25:07;33.60;70.20
20526;DHT22;10421;49.142;9.232;2023-08-24T10:27:35;33.70;70.20
20526;DHT22;10421;49.142;9.232;2023-08-24T10:30:02;33.80;70.30
20526;DHT22;10421;49.142;9.232;2023-08-24T10:32:30;33.80;70.00
20526;DHT22;10421;49.142;9.232;2023-08-24T10:35:00;34.00;69.80
20526;DHT22;10421;49.142;9.232;2023-08-24T10:37:27;34.10;69.30
20526;DHT22;10421;49.142;9.232;2023-08-24T10:39:54;34.20;69.10
20526;DHT22;10421;49.142;9.232;2023-08-24T10:42:21;34.30;69.00
20526;DHT22;10421;49.142;9.232;2023-08-24T10:44:48;34.30;69.20
20526;DHT22;10421;49.142;9.232;2023-08-24T10:47:17;34.40;67.70
20526;DHT22;10421;49.142;9.232;2023-08-24T10:49:57;34.50;67.80
20526;DHT22;10421;49.142;9.232;2023-08-24T10:52:30;34.60;68.10
20526;DHT22;10421;49.142;9.232;2023-08-24T10:54:57;34.70;68.20
20526;DHT22;10421;49.142;9.232;2023-08-24T10:57:31;34.70;67.90
20526;DHT22;10421;49.142;9.232;2023-08-24T11:00:04;34.70;68.00
20526;DHT22;10421;49.142;9.232;2023-08-24T11:02:41;34.80;68.40
20526;DHT22;10421;49.142;9.232;2023-08-24T11:05:19;34.80;68.80
20526;DHT22;10421;49.142;9.232;2023-08-24T11:07:52;34.90;68.60
20526;DHT22;10421;49.142;9.232;2023-08-24T11:10:20;35.00;68.50
20526;DHT22;10421;49.142;9.232;2023-08-24T11:13:09;35.00;68.10
20526;DHT22;10421;49.142;9.232;2023-08-24T11:15:38;35.20;67.60
20526;DHT22;10421;49.142;9.232;2023-08-24T11:18:15;35.30;67.50
20526;DHT22;10421;49.142;9.232;2023-08-24T11:20:47;35.50;67.40
20526;DHT22;10421;49.142;9.232;2023-08-24T11:23:16;35.60;66.80
20526;DHT22;10421;49.142;9.232;2023-08-24T11:25:44;35.70;66.50
20526;DHT22;10421;49.142;9.232;2023-08-24T11:28:10;35.80;66.20
20526;DHT22;10421;49.142;9.232;2023-08-24T11:30:37;35.90;65.80
20526;DHT22;10421;49.142;9.232;2023-08-24T11:33:04;35.90;65.20
20526;DHT22;10421;49.142;9.232;2023-08-24T11:35:35;36.00;65.30
20526;DHT22;10421;49.142;9.232;2023-08-24T11:38:03;36.10;65.10
20526;DHT22;10421;49.142;9.232;2023-08-24T11:40:31;36.10;64.60
20526;DHT22;10421;49.142;9.232;2023-08-24T11:42:59;36.20;64.60
20526;DHT22;10421;49.142;9.232;2023-08-24T11:45:30;36.30;64.80
20526;DHT22;10421;49.142;9.232;2023-08-24T11:47:58;36.30;64.30
20526;DHT22;10421;49.142;9.232;2023-08-24T11:50:25;36.30;63.90
20526;DHT22;10421;49.142;9.232;2023-08-24T11:52:53;36.40;64.10
20526;DHT22;10421;49.142;9.232;2023-08-24T11:55:21;36.30;62.90
20526;DHT22;10421;49.142;9.232;2023-08-24T11:57:49;36.30;63.70
20526;DHT22;10421;49.142;9.232;2023-08-24T12:00:17;36.50;64.00
20526;DHT22;10421;49.142;9.232;2023-08-24T12:02:44;36.60;63.70
20526;DHT22;10421;49.142;9.232;2023-08-24T12:05:21;36.80;63.50
20526;DHT22;10421;49.142;9.232;2023-08-24T12:07:49;37.00;62.80
20526;DHT22;10421;49.142;9.232;2023-08-24T12:10:16;37.10;62.10
20526;DHT22;10421;49.142;9.232;2023-08-24T12:12:43;37.20;61.60
20526;DHT22;10421;49.142;9.232;2023-08-24T12:15:16;37.20;61.30
20526;DHT22;10421;49.142;9.232;2023-08-24T12:17:45;37.30;61.00
20526;DHT22;10421;49.142;9.232;2023-08-24T12:20:19;37.50;60.50
20526;DHT22;10421;49.142;9.232;2023-08-24T12:22:51;37.50;59.80
20526;DHT22;10421;49.142;9.232;2023-08-24T12:25:21;37.60;60.20
20526;DHT22;10421;49.142;9.232;2023-08-24T12:27:48;37.70;60.00
20526;DHT22;10421;49.142;9.232;2023-08-24T12:30:17;37.70;59.30
20526;DHT22;10421;49.142;9.232;2023-08-24T12:32:44;37.70;59.00
20526;DHT22;10421;49.142;9.232;2023-08-24T12:35:12;37.70;58.80
20526;DHT22;10421;49.142;9.232;2023-08-24T12:37:38;37.80;58.60
20526;DHT22;10421;49.142;9.232;2023-08-24T12:40:06;37.80;58.80
20526;DHT22;10421;49.142;9.232;2023-08-24T12:42:34;37.60;58.50
20526;DHT22;10421;49.142;9.232;2023-08-24T12:45:01;37.50;58.50
20526;DHT22;10421;49.142;9.232;2023-08-24T12:47:31;37.20;58.90
20526;DHT22;10421;49.142;9.232;2023-08-24T12:50:00;37.00;59.40
20526;DHT22;10421;49.142;9.232;2023-08-24T12:52:27;37.10;59.70
20526;DHT22;10421;49.142;9.232;2023-08-24T12:54:53;37.20;60.00
20526;DHT22;10421;49.142;9.232;2023-08-24T12:57:20;37.20;60.00
20526;DHT22;10421;49.142;9.232;2023-08-24T12:59:47;37.20;60.20
20526;DHT22;10421;49.142;9.232;2023-08-24T13:02:14;37.10;60.10
20526;DHT22;10421;49.142;9.232;2023-08-24T13:04:42;37.10;60.80
20526;DHT22;10421;49.142;9.232;2023-08-24T13:07:09;37.10;60.80
20526;DHT22;10421;49.142;9.232;2023-08-24T13:09:35;37.20;60.90
20526;DHT22;10421;49.142;9.232;2023-08-24T13:12:02;37.20;60.70
20526;DHT22;10421;49.142;9.232;2023-08-24T13:14:29;37.20;60.70
20526;DHT22;10421;49.142;9.232;2023-08-24T13:16:56;37.20;60.70
20526;DHT22;10421;49.142;9.232;2023-08-24T13:19:23;37.20;60.80
20526;DHT22;10421;49.142;9.232;2023-08-24T13:21:51;37.20;61.00
20526;DHT22;10421;49.142;9.232;2023-08-24T13:24:18;37.30;61.30
20526;DHT22;10421;49.142;9.232;2023-08-24T13:26:44;37.20;61.40
20526;DHT22;10421;49.142;9.232;2023-08-24T13:29:11;37.30;61.20
20526;DHT22;10421;49.142;9.232;2023-08-24T13:31:38;37.30;60.90
20526;DHT22;10421;49.142;9.232;2023-08-24T13:34:05;37.30;60.80
20526;DHT22;10421;49.142;9.232;2023-08-24T13:36:33;37.40;60.80
20526;DHT22;10421;49.142;9.232;2023-08-24T13:39:01;37.50;60.40
20526;DHT22;10421;49.142;9.232;2023-08-24T13:41:29;37.70;60.40
20526;DHT22;10421;49.142;9.232;2023-08-24T13:43:55;37.70;60.00
20526;DHT22;10421;49.142;9.232;2023-08-24T13:46:22;37.70;60.00
20526;DHT22;10421;49.142;9.232;2023-08-24T13:48:49;37.70;60.40
20526;DHT22;10421;49.142;9.232;2023-08-24T13:51:16;37.80;60.30
20526;DHT22;10421;49.142;9.232;2023-08-24T13:53:42;37.90;59.80
20526;DHT22;10421;49.142;9.232;2023-08-24T13:56:11;37.90;59.80
20526;DHT22;10421;49.142;9.232;2023-08-24T13:58:37;38.00;59.60
20526;DHT22;10421;49.142;9.232;2023-08-24T14:01:04;38.00;59.60
20526;DHT22;10421;49.142;9.232;2023-08-24T14:03:31;38.10;59.60
20526;DHT22;10421;49.142;9.232;2023-08-24T14:05:58;38.20;59.80
20526;DHT22;10421;49.142;9.232;2023-08-24T14:08:25;38.30;59.50
20526;DHT22;10421;49.142;9.232;2023-08-24T14:10:51;38.40;59.30
20526;DHT22;10421;49.142;9.232;2023-08-24T14:13:20;38.40;59.30
20526;DHT22;10421;49.142;9.232;2023-08-24T14:15:48;38.30;59.20
20526;DHT22;10421;49.142;9.232;2023-08-24T14:18:15;38.30;59.40
20526;DHT22;10421;49.142;9.232;2023-08-24T14:20:42;38.30;59.40
20526;DHT22;10421;49.142;9.232;2023-08-24T14:23:09;38.20;59.60
20526;DHT22;10421;49.142;9.232;2023-08-24T14:25:36;38.10;59.80
20526;DHT22;10421;49.142;9.232;2023-08-24T14:28:03;37.90;59.90
20526;DHT22;10421;49.142;9.232;2023-08-24T14:30:31;37.80;60.00
20526;DHT22;10421;49.142;9.232;2023-08-24T14:32:58;37.60;60.10
20526;DHT22;10421;49.142;9.232;2023-08-24T14:35:25;37.50;60.40
20526;DHT22;10421;49.142;9.232;2023-08-24T14:37:52;37.30;60.50
20526;DHT22;10421;49.142;9.232;2023-08-24T14:40:19;37.30;61.00
20526;DHT22;10421;49.142;9.232;2023-08-24T14:42:46;37.10;61.30
20526;DHT22;10421;49.142;9.232;2023-08-24T14:45:15;37.00;61.30
20526;DHT22;10421;49.142;9.232;2023-08-24T14:47:44;36.80;61.30
20526;DHT22;10421;49.142;9.232;2023-08-24T14:50:11;36.70;61.70
20526;DHT22;10421;49.142;9.232;2023-08-24T14:52:38;36.50;62.00
20526;DHT22;10421;49.142;9.232;2023-08-24T14:55:06;36.30;62.40
20526;DHT22;10421;49.142;9.232;2023-08-24T14:57:33;36.20;62.80
20526;DHT22;10421;49.142;9.232;2023-08-24T15:00:00;35.90;63.70
20526;DHT22;10421;49.142;9.232;2023-08-24T15:02:27;35.70;64.40
20526;DHT22;10421;49.142;9.232;2023-08-24T15:04:55;35.60;65.20
20526;DHT22;10421;49.142;9.232;2023-08-24T15:07:27;35.50;65.80
20526;DHT22;10421;49.142;9.232;2023-08-24T15:09:56;35.30;65.90
20526;DHT22;10421;49.142;9.232;2023-08-24T15:12:23;35.20;65.60
20526;DHT22;10421;49.142;9.232;2023-08-24T15:14:59;35.10;66.40
20526;DHT22;10421;49.142;9.232;2023-08-24T15:17:26;35.00;67.60
20526;DHT22;10421;49.142;9.232;2023-08-24T15:19:55;34.80;68.70
20526;DHT22;10421;49.142;9.232;2023-08-24T15:22:22;34.60;70.00
20526;DHT22;10421;49.142;9.232;2023-08-24T15:24:49;34.50;73.70
20526;DHT22;10421;49.142;9.232;2023-08-24T15:27:16;34.30;74.30
20526;DHT22;10421;49.142;9.232;2023-08-24T15:29:44;34.00;79.80
20526;DHT22;10421;49.142;9.232;2023-08-24T15:32:11;33.50;65.80
20526;DHT22;10421;49.142;9.232;2023-08-24T15:34:37;33.30;66.60